Latest Weather Observations for Coffs Harbour Airport

IDN60801

Issued at 11:52 am EDT Thursday 21 November 2019 (issued every 10 minutes, with the page automatically refreshed every 10 minutes)

About weather observations | Map of weather stations | Latest weather observations for NSW | Other Formats
Station Details ID: 059151 Name: COFFS HARBOUR AIRPORT Lat: -30.32 Lon: 153.12 Height: 3.5 m
Data from the previous 72 hours. | See also: Recent months at Coffs Harbour Airport
Date/Time
EDT
Temp
°C
App
Temp
°C
Dew
Point
°C
Rel
Hum
%
Delta-T
°C
Wind Press
QNH
hPa
Press
MSL
hPa
Rain since
9am
mm
Dir  Spd
km/h
Gust
km/h
Spd
kts
Gust
kts
21/11:30am 25.5 21.2 18.7 66 4.3 NNE 39 57 21 31 1016.8 1016.8 0.0
21/11:00am 25.5 21.9 19.4 69 3.9 NNE 37 56 20 30 1017.1 1017.1 0.0
21/10:58am 25.6 22.1 19.5 69 3.9 NNE 37 56 20 30 1017.1 1017.1 0.0
21/10:30am 25.1 22.0 19.7 72 3.5 NNE 35 46 19 25 1017.5 1017.5 0.0
21/10:00am 25.5 23.3 20.3 73 3.4 NNE 32 39 17 21 1017.7 1017.7 0.0
21/09:30am 24.9 23.6 19.9 74 3.2 NE 26 35 14 19 1018.0 1018.0 0.0
21/09:00am 25.4 24.1 19.1 68 4.0 NNE 24 32 13 17 1018.2 1018.2 0.0
21/08:30am 24.4 24.1 19.2 73 3.3 N 19 26 10 14 1018.4 1018.4 0.0
21/08:00am 23.5 23.1 19.0 76 2.9 N 19 26 10 14 1018.4 1018.4 0.0
21/07:30am 21.8 24.7 19.0 84 1.8 NE 2 7 1 4 1018.3 1018.3 0.0
21/07:11am 21.1 24.3 18.9 87 1.4 CALM 0 0 0 0 1018.1 1018.1 0.0
21/07:00am 20.8 24.1 19.1 90 1.1 CALM 0 0 0 0 1018.0 1018.0 0.0
21/06:30am 19.9 21.7 18.2 90 1.1 E 6 7 3 4 1017.6 1017.6 0.0
21/06:00am 19.7 21.2 18.0 90 1.0 N 7 7 4 4 1017.4 1017.4 0.0
21/05:30am 19.5 20.5 17.8 90 1.0 N 9 11 5 6 1017.2 1017.2 0.0
21/05:00am 19.4 20.9 18.1 92 0.8 N 7 9 4 5 1016.8 1016.8 0.0
21/04:30am 19.5 20.7 18.2 92 0.8 NNE 9 11 5 6 1016.6 1016.6 0.0
21/04:00am 19.2 20.3 18.0 93 0.7 N 9 9 5 5 1016.5 1016.5 0.0
21/03:30am 18.7 21.3 17.5 93 0.7 CALM 0 0 0 0 1016.5 1016.5 0.0
21/03:00am 18.3 20.3 17.0 92 0.8 N 2 6 1 3 1016.7 1016.7 0.0
21/02:30am 18.3 19.3 16.8 91 0.9 NNE 7 9 4 5 1016.6 1016.6 0.0
21/02:00am 18.8 21.2 17.1 90 1.0 CALM 0 0 0 0 1016.8 1016.8 0.0
21/01:30am 19.6 22.4 17.9 90 1.0 CALM 0 0 0 0 1017.1 1017.1 0.0
21/01:13am 19.1 20.2 17.1 88 1.2 SW 7 9 4 5 1017.2 1017.2 0.0
21/01:10am 19.8 21.2 17.9 89 1.2 SW 7 9 4 5 1017.2 1017.2 0.0
21/01:00am 19.8 20.6 18.1 90 1.0 WSW 11 15 6 8 1017.2 1017.2 0.0
21/12:30am 20.1 23.0 18.1 88 1.2 CALM 0 0 0 0 1017.7 1017.7 0.0
21/12:00am 20.5 22.2 18.4 88 1.3 NNW 7 9 4 5 1017.9 1017.9 0.0
 
Date/Time
EDT
Temp
°C
App
Temp
°C
Dew
Point
°C
Rel
Hum
%
Delta-T
°C
Wind Press
QNH
hPa
Press
MSL
hPa
Rain since
9am
mm
Dir  Spd
km/h
Gust
km/h
Spd
kts
Gust
kts
20/11:30pm 21.1 24.2 18.7 86 1.5 CALM 0 0 0 0 1018.0 1018.0 0.0
20/11:00pm 21.6 24.9 19.2 86 1.5 CALM 0 0 0 0 1017.8 1017.8 0.0
20/10:44pm 21.6 24.2 19.2 86 1.5 NNE 4 6 2 3 1017.9 1017.9 0.0
20/10:30pm 21.6 23.2 19.2 86 1.5 NNE 9 11 5 6 1017.8 1017.8 0.0
20/10:11pm 21.5 23.5 19.2 87 1.5 NE 7 9 4 5 1017.6 1017.6 0.0
20/10:00pm 21.4 23.5 19.3 88 1.3 NE 7 9 4 5 1017.5 1017.5 0.0
20/09:30pm 20.5 21.9 18.6 89 1.2 NNE 9 13 5 7 1017.3 1017.3 0.0
20/09:04pm 19.9 21.3 17.9 88 1.2 NNE 7 9 4 5 1016.9 1016.9 0.0
20/09:00pm 19.9 21.0 17.9 88 1.2 NNE 9 9 5 5 1016.7 1016.7 0.0
20/08:48pm 19.9 20.9 17.7 87 1.4 NNE 9 9 5 5 1016.6 1016.6 0.0
20/08:30pm 20.9 23.2 18.5 86 1.5 SW 4 7 2 4 1016.4 1016.4 0.0
20/08:00pm 21.2 22.6 18.6 85 1.6 WSW 9 17 5 9 1016.1 1016.1 0.0
20/07:30pm 21.4 22.8 18.6 84 1.8 SW 9 13 5 7 1015.9 1015.9 0.0
20/07:00pm 21.9 21.5 18.9 83 1.9 SSW 19 26 10 14 1015.5 1015.5 0.0
20/06:30pm 21.7 21.7 18.9 84 1.8 SSW 17 24 9 13 1015.3 1015.3 0.0
20/06:10pm 21.9 21.9 18.9 83 1.9 SSW 17 19 9 10 1015.1 1015.1 0.0
20/06:00pm 22.0 22.0 19.0 83 1.9 SSW 17 20 9 11 1015.0 1015.0 0.0
20/05:34pm 22.2 21.8 19.0 82 2.0 SSW 19 28 10 15 1014.7 1014.7 0.0
20/05:30pm 22.2 21.8 19.0 82 2.0 SSW 19 28 10 15 1014.7 1014.7 0.0
20/05:22pm 22.2 21.8 19.0 82 2.0 SSW 19 24 10 13 1014.6 1014.6 0.0
20/05:00pm 22.4 22.3 18.8 80 2.3 SSW 17 24 9 13 1014.5 1014.5 0.0
20/04:40pm 22.7 23.4 18.9 79 2.4 S 13 17 7 9 1014.5 1014.5 0.0
20/04:30pm 22.9 23.0 19.1 79 2.4 S 17 19 9 10 1014.4 1014.4 0.0
20/04:06pm 23.1 23.4 18.8 77 2.7 S 15 19 8 10 1014.3 1014.3 0.0
20/04:00pm 23.2 23.6 18.9 77 2.7 S 15 20 8 11 1014.4 1014.4 0.0
20/03:56pm 23.2 23.1 18.7 76 2.8 S 17 22 9 12 1014.3 1014.3 0.0
20/03:36pm 23.8 23.2 18.9 74 3.1 S 20 26 11 14 1014.1 1014.1 0.0
20/03:30pm 23.8 22.7 18.7 73 3.2 S 22 28 12 15 1014.1 1014.1 0.0
20/03:00pm 24.3 24.1 18.5 70 3.7 S 17 24 9 13 1014.0 1014.0 0.0
20/02:30pm 24.8 25.4 18.5 68 4.0 S 13 19 7 10 1013.8 1013.8 0.0
20/02:13pm 25.4 25.9 19.3 69 3.9 SSE 15 22 8 12 1013.7 1013.7 0.0
20/02:00pm 24.8 25.1 18.7 69 3.9 SSE 15 20 8 11 1013.8 1013.8 0.0
20/01:30pm 24.8 24.7 18.7 69 3.9 S 17 22 9 12 1013.9 1013.9 0.0
20/01:01pm 25.1 24.4 18.3 66 4.3 S 19 26 10 14 1014.0 1014.0 0.0
20/01:00pm 25.2 24.7 18.6 67 4.2 S 19 26 10 14 1014.0 1014.0 0.0
20/12:30pm 24.6 24.2 18.1 67 4.1 S 17 26 9 14 1014.3 1014.3 0.0
20/12:13pm 24.8 24.0 18.0 66 4.3 S 19 26 10 14 1014.2 1014.2 0.0
20/12:00pm 24.7 24.0 17.4 64 4.5 S 17 24 9 13 1014.2 1014.2 0.0
20/11:30am 24.3 22.8 16.8 63 4.6 S 20 28 11 15 1014.3 1014.3 0.0
20/11:00am 24.3 22.0 16.6 62 4.7 SSW 24 32 13 17 1014.4 1014.4 0.0
20/10:58am 24.5 22.4 17.2 63 4.5 SSW 24 32 13 17 1014.4 1014.4 0.0
20/10:30am 23.6 21.0 15.9 62 4.7 SSW 24 32 13 17 1014.4 1014.4 0.0
20/10:00am 23.5 20.1 15.8 62 4.6 SSW 28 33 15 18 1014.2 1014.2 0.0
20/09:30am 23.2 20.8 15.3 61 4.7 SSW 22 28 12 15 1014.2 1014.2 0.0
20/09:00am 22.8 19.4 13.8 57 5.2 SW 24 30 13 16 1014.3 1014.3 0.0
20/08:30am 22.4 20.0 14.3 60 4.7 SW 20 30 11 16 1014.2 1014.2 0.0
20/08:05am 21.8 18.4 12.4 55 5.3 WSW 22 32 12 17 1014.0 1014.0 0.0
20/08:00am 21.6 17.3 11.9 54 5.4 WSW 26 35 14 19 1013.9 1013.9 0.0
20/07:30am 19.9 15.1 10.3 54 5.2 SW 26 33 14 18 1013.4 1013.4 0.0
20/07:22am 19.7 14.8 10.1 54 5.2 WSW 26 33 14 18 1013.3 1013.3 0.0
20/07:00am 18.6 16.0 11.9 65 3.7 SW 17 26 9 14 1012.8 1012.8 0.0
20/06:30am 17.4 16.5 12.5 73 2.7 NNE 9 11 5 6 1011.7 1011.7 0.0
20/06:00am 18.3 15.6 13.0 71 3.0 NNE 19 20 10 11 1010.9 1010.9 0.0
20/05:30am 18.1 15.9 13.4 74 2.7 NNE 17 19 9 10 1010.7 1010.7 0.0
20/05:24am 18.1 15.9 13.4 74 2.7 NNE 17 19 9 10 1010.5 1010.5 0.0
20/05:00am 18.5 16.3 13.4 72 2.9 NNE 17 19 9 10 1010.4 1010.4 0.0
20/04:30am 21.5 19.9 11.5 53 5.6 N 11 15 6 8 1010.3 1010.3 0.0
20/04:00am 17.7 17.3 12.4 71 2.9 NE 6 9 3 5 1010.2 1010.2 0.0
20/03:42am 17.5 17.1 13.0 75 2.5 NNE 7 9 4 5 1010.3 1010.3 0.0
20/03:30am 16.7 15.8 12.7 77 2.2 NNE 9 11 5 6 1010.4 1010.4 0.0
20/03:00am 17.0 16.6 12.9 77 2.3 NNE 7 11 4 6 1010.8 1010.8 0.0
20/02:37am 16.7 17.0 12.3 75 2.4 NNE 2 7 1 4 1011.0 1011.0 0.0
20/02:30am 16.7 17.4 12.3 75 2.4 CALM 0 0 0 0 1011.1 1011.1 0.0
20/02:08am 17.1 16.2 12.6 75 2.5 NNE 9 11 5 6 1011.5 1011.5 0.0
20/02:00am 16.8 16.3 12.5 76 2.4 NNE 7 11 4 6 1011.6 1011.6 0.0
20/01:47am 17.0 16.5 12.7 76 2.4 NNE 7 9 4 5 1011.7 1011.7 0.0
20/01:30am 16.5 15.5 12.3 76 2.3 N 9 11 5 6 1012.0 1012.0 0.0
20/01:00am 17.2 16.0 12.7 75 2.5 N 11 11 6 6 1012.4 1012.4 0.0
20/12:46am 17.9 16.8 13.0 73 2.7 N 11 13 6 7 1012.5 1012.5 0.0
20/12:30am 16.8 15.2 12.9 78 2.2 NNE 13 15 7 8 1012.6 1012.6 0.0
20/12:00am 17.6 16.8 13.9 79 2.1 NNE 11 13 6 7 1012.9 1012.9 0.0
 
Date/Time
EDT
Temp
°C
App
Temp
°C
Dew
Point
°C
Rel
Hum
%
Delta-T
°C
Wind Press
QNH
hPa
Press
MSL
hPa
Rain since
9am
mm
Dir  Spd
km/h
Gust
km/h
Spd
kts
Gust
kts
19/11:30pm 18.3 18.1 14.6 79 2.1 N 9 11 5 6 1013.1 1013.1 0.0
19/11:00pm 18.5 18.6 15.4 82 1.8 NNE 9 11 5 6 1013.1 1013.1 0.0
19/10:30pm 18.6 18.3 14.5 77 2.4 NNE 9 11 5 6 1013.3 1013.3 0.0
19/10:00pm 18.8 18.8 14.1 74 2.7 N 7 9 4 5 1013.2 1013.2 0.0
19/09:30pm 20.0 20.0 14.1 69 3.4 N 7 9 4 5 1012.9 1012.9 0.0
19/09:08pm 19.6 19.7 14.4 72 3.0 N 7 7 4 4 1012.8 1012.8 0.0
19/09:00pm 19.6 19.7 15.5 77 2.4 NNE 9 11 5 6 1012.6 1012.6 0.0
19/08:46pm 19.7 20.5 15.8 78 2.3 N 6 7 3 4 1012.5 1012.5 0.0
19/08:35pm 19.4 19.8 15.3 77 2.4 N 7 9 4 5 1012.4 1012.4 0.0
19/08:30pm 19.9 20.5 15.7 77 2.5 N 7 9 4 5 1012.4 1012.4 0.0
19/08:00pm 20.9 21.0 15.4 71 3.3 N 9 9 5 5 1012.3 1012.3 0.0
19/07:30pm 22.4 22.8 16.2 68 3.8 N 9 11 5 6 1011.9 1011.9 0.0
19/07:00pm 23.2 22.7 16.0 64 4.4 NNE 13 15 7 8 1011.5 1011.5 0.0
19/06:30pm 24.4 24.3 16.9 63 4.6 N 13 17 7 9 1011.0 1011.0 0.0
19/06:00pm 24.6 24.8 17.6 65 4.4 NNE 13 19 7 10 1010.7 1010.7 0.0
19/05:30pm 24.5 24.7 17.7 66 4.2 NNE 13 19 7 10 1010.5 1010.5 0.0
19/05:00pm 24.7 24.6 17.9 66 4.3 NNE 15 17 8 9 1010.4 1010.4 0.0
19/04:30pm 24.7 24.3 17.2 63 4.7 NNE 15 19 8 10 1010.6 1010.6 0.0
19/04:00pm 24.1 23.2 17.8 68 3.9 NNE 19 22 10 12 1010.7 1010.7 0.0
19/03:39pm 24.5 23.7 17.0 63 4.6 NE 17 20 9 11 1010.8 1010.8 0.0
19/03:30pm 25.0 25.0 18.0 65 4.4 NE 15 22 8 12 1010.8 1010.8 0.0
19/03:03pm 24.7 23.6 17.2 63 4.7 NNE 19 26 10 14 1010.9 1010.9 0.0
19/03:02pm 24.9 23.8 17.4 63 4.7 NE 19 26 10 14 1010.9 1010.9 0.0
19/03:00pm 25.1 24.2 17.8 64 4.6 NE 19 26 10 14 1010.9 1010.9 0.0
19/02:30pm 25.2 24.0 17.1 60 5.0 NE 19 22 10 12 1011.1 1011.1 0.0
19/02:29pm 25.3 24.3 17.5 62 4.9 NE 19 22 10 12 1011.1 1011.1 0.0
19/02:00pm 25.8 25.0 17.2 59 5.4 NE 17 22 9 12 1011.4 1011.4 0.0
19/01:30pm 25.4 24.2 17.6 62 4.9 NE 20 28 11 15 1011.8 1011.8 0.0
19/01:00pm 25.8 25.1 17.4 59 5.2 NE 17 24 9 13 1012.1 1012.1 0.0
19/12:30pm 24.6 22.9 17.1 63 4.6 NE 22 30 12 16 1012.3 1012.3 0.0
19/12:00pm 25.3 24.2 16.4 57 5.5 NE 17 22 9 12 1012.7 1012.7 0.0
19/11:30am 25.4 24.8 15.7 55 5.9 NE 13 17 7 9 1013.0 1013.0 0.0
19/11:00am 26.2 25.8 15.3 51 6.6 E 11 17 6 9 1013.4 1013.4 0.0
19/10:30am 25.1 24.1 14.6 52 6.3 ESE 13 15 7 8 1013.6 1013.6 0.0
19/10:00am 24.5 25.1 15.7 58 5.3 SSE 7 11 4 6 1013.8 1013.8 0.0
19/09:30am 24.3 24.4 13.8 52 6.2 WNW 6 11 3 6 1014.1 1014.1 0.0
19/09:00am 22.7 21.5 12.9 54 5.6 NNW 11 15 6 8 1014.2 1014.2 0.0
19/08:30am 21.2 20.0 12.9 59 4.7 N 11 15 6 8 1014.3 1014.3 0.0
19/08:00am 20.1 18.6 13.1 64 4.0 NNW 13 17 7 9 1014.3 1014.3 0.0
19/07:30am 19.6 18.6 13.5 68 3.5 NW 11 15 6 8 1014.3 1014.3 0.0
19/07:00am 19.1 17.7 13.5 70 3.2 NW 13 19 7 10 1014.1 1014.1 0.0
19/06:30am 18.2 18.1 13.9 76 2.5 NW 7 13 4 7 1014.1 1014.1 0.0
19/06:00am 16.9 16.6 13.2 79 2.1 N 7 13 4 7 1013.8 1013.8 0.0
19/05:30am 17.5 16.7 14.0 80 2.0 NNE 11 15 6 8 1013.7 1013.7 0.0
19/05:00am 17.2 16.7 13.7 80 2.0 N 9 11 5 6 1013.6 1013.6 0.0
19/04:34am 18.0 16.5 14.1 78 2.2 N 15 19 8 10 1013.7 1013.7 0.0
19/04:30am 18.2 16.7 14.1 77 2.3 N 15 19 8 10 1013.7 1013.7 0.0
19/04:00am 18.6 16.7 14.3 76 2.5 N 17 24 9 13 1013.7 1013.7 0.0
19/03:30am 18.8 15.3 14.5 76 2.5 N 26 32 14 17 1013.8 1013.8 0.0
19/03:00am 18.7 15.6 14.6 77 2.4 NNE 24 30 13 16 1014.2 1014.2 0.0
19/02:30am 19.1 16.8 14.6 75 2.6 NNE 20 26 11 14 1014.6 1014.6 0.0
19/02:00am 19.5 17.3 14.5 73 2.9 N 19 26 10 14 1014.9 1014.9 0.0
19/01:30am 19.7 17.0 14.7 73 2.9 N 22 32 12 17 1015.3 1015.3 0.0
19/01:00am 19.9 17.6 14.7 72 3.0 N 20 28 11 15 1015.6 1015.6 0.0
19/12:30am 19.9 16.8 14.5 71 3.1 N 24 35 13 19 1015.9 1015.9 0.0
19/12:00am 19.8 17.4 14.4 71 3.1 N 20 32 11 17 1016.3 1016.3 0.0
 
Date/Time
EDT
Temp
°C
App
Temp
°C
Dew
Point
°C
Rel
Hum
%
Delta-T
°C
Wind Press
QNH
hPa
Press
MSL
hPa
Rain since
9am
mm
Dir  Spd
km/h
Gust
km/h
Spd
kts
Gust
kts
18/11:30pm 19.8 17.5 14.2 70 3.2 N 19 30 10 16 1016.5 1016.5 0.0
18/11:00pm 20.0 17.7 14.1 69 3.4 N 19 28 10 15 1016.7 1016.7 0.0
18/10:30pm 20.0 16.7 13.9 68 3.5 N 24 30 13 16 1016.8 1016.8 0.0
18/10:00pm 20.2 16.9 14.1 68 3.5 N 24 33 13 18 1016.9 1016.9 0.0
18/09:30pm 20.2 17.9 14.1 68 3.5 N 19 26 10 14 1016.8 1016.8 0.0
18/09:00pm 20.3 18.0 14.2 68 3.5 N 19 28 10 15 1016.6 1016.6 0.0
18/08:30pm 20.3 17.8 14.2 68 3.5 N 20 32 11 17 1016.4 1016.4 0.0
18/08:00pm 20.4 18.0 14.3 68 3.5 N 20 28 11 15 1016.3 1016.3 0.0
18/07:30pm 20.8 18.4 14.5 67 3.7 N 20 32 11 17 1016.1 1016.1 0.0
18/07:00pm 21.0 17.5 14.4 66 3.8 NNE 26 32 14 17 1015.9 1015.9 0.0
18/06:30pm 21.1 16.8 14.3 65 4.0 NNE 30 39 16 21 1015.6 1015.6 0.0
18/06:00pm 21.3 16.7 14.5 65 4.0 NNE 32 41 17 22 1015.3 1015.3 0.0
18/05:30pm 21.5 16.8 14.2 63 4.3 NNE 32 39 17 21 1015.1 1015.1 0.0
18/05:00pm 22.1 17.5 14.5 62 4.5 NNE 32 39 17 21 1015.3 1015.3 0.0
18/04:30pm 22.2 18.0 14.6 62 4.5 NNE 30 41 16 22 1015.6 1015.6 0.0
18/04:00pm 22.3 17.6 14.2 60 4.7 NE 32 39 17 21 1015.8 1015.8 0.0
18/03:30pm 22.6 18.3 14.4 60 4.8 NE 30 41 16 22 1016.1 1016.1 0.0
18/03:00pm 23.1 18.4 14.4 58 5.1 NE 32 39 17 21 1016.4 1016.4 0.0
18/02:30pm 23.2 19.0 13.4 54 5.7 NE 28 35 15 19 1016.9 1016.9 0.0
18/02:00pm 23.0 19.1 13.2 54 5.6 NE 26 35 14 19 1017.5 1017.5 0.0
18/01:30pm 24.0 20.6 15.8 60 5.0 NE 28 35 15 19 1018.0 1018.0 0.0
18/01:00pm 23.1 19.7 14.7 59 5.0 NE 26 33 14 18 1018.4 1018.4 0.0
18/12:30pm 23.3 19.9 14.8 59 5.0 ENE 26 33 14 18 1018.9 1018.9 0.0
18/12:00pm 23.6 19.9 15.1 59 5.1 NE 28 33 15 18 1019.1 1019.1 0.0

Other formats

Comma delimited format used in spreadsheet applications
http://www.bom.gov.au/fwo/IDN60801/IDN60801.95729.axf

JavaScript Object Notation format (JSON) in row-major order
http://www.bom.gov.au/fwo/IDN60801/IDN60801.95729.json

Data quality

Most of these data are generated automatically and are frequently updated. Quality checks on data are not normally performed. It is possible for incorrect values to appear. Refer to information at About Latest Weather Observations and please check the disclaimer before using these data.